Terminal Aerodrome Forecast
Issued by NWS

Home | Current Version | Previous Version | Graphics & Text | Print | Product List | Glossary On
Versions: 1 2 3 4 5 6 7 8 9 10 11 12 13 14 15 16 17 18 19 20 21 22
000
FTUS43 KABR 271900 AAA
TAFMBG
TAF AMD
KMBG 271917Z 2719/2818 34010KT P6SM SCT060
     FM280200 34006KT P6SM VCSH OVC040
     FM280800 34006KT P6SM SKC=

USA.gov is the U.S. government's official web portal to all federal, state and local government web resources and services.